Time;durP1;ratioP1;P1;durP2;ratioP2;P2;SDS_P1;SDS_P2;PMS_P1;PMS_P2;Temp;Humidity;BMP_temperature;BMP_pressure;BME280_temperature;BME280_humidity;BME280_pressure;Samples;Min_cycle;Max_cycle;Signal;HPM_P1;HPM_P2
2023/05/11 00:01:35;;;;;;;4.57;2.10;;;12.10;99.90;;;;;;5049991;28;20033;-72
2023/05/11 00:04:01;;;;;;;4.22;1.98;;;12.00;99.90;;;;;;5049637;28;20091;-73
2023/05/11 00:06:26;;;;;;;4.43;1.80;;;12.00;99.90;;;;;;5051208;28;20021;-72
2023/05/11 00:08:52;;;;;;;6.68;1.92;;;12.00;99.90;;;;;;5035351;28;20082;-76
2023/05/11 00:11:18;;;;;;;5.80;1.73;;;12.00;99.90;;;;;;5054150;28;20453;-72
2023/05/11 00:13:44;;;;;;;6.85;2.20;;;12.00;99.90;;;;;;5053365;28;20351;-73
2023/05/11 00:16:10;;;;;;;3.35;1.88;;;11.90;99.90;;;;;;5052881;28;20037;-73
2023/05/11 00:18:36;;;;;;;5.53;1.88;;;12.00;99.90;;;;;;5053334;28;20456;-73
2023/05/11 00:21:01;;;;;;;5.30;2.08;;;11.90;99.90;;;;;;5052840;28;20025;-73
2023/05/11 00:23:27;;;;;;;6.03;2.20;;;11.90;99.90;;;;;;5053715;28;20029;-72
2023/05/11 00:25:53;;;;;;;6.43;1.95;;;11.90;99.90;;;;;;5018856;28;20029;-75
2023/05/11 00:28:19;;;;;;;5.85;1.90;;;11.90;99.90;;;;;;5053234;28;20438;-73
2023/05/11 00:30:44;;;;;;;4.63;1.75;;;11.80;99.90;;;;;;5052814;28;20055;-73
2023/05/11 00:33:10;;;;;;;2.78;1.98;;;11.80;99.90;;;;;;5052765;28;20382;-73
2023/05/11 00:35:36;;;;;;;7.22;2.45;;;11.80;99.90;;;;;;5053005;28;20025;-74
2023/05/11 00:38:02;;;;;;;5.68;2.28;;;11.80;99.90;;;;;;5052479;28;20048;-74
2023/05/11 00:40:30;;;;;;;5.05;1.80;;;11.80;99.90;;;;;;5053208;28;20030;-74
2023/05/11 00:42:56;;;;;;;6.47;2.40;;;11.80;99.90;;;;;;5052895;28;20087;-74
2023/05/11 00:45:22;;;;;;;6.10;2.50;;;11.70;99.90;;;;;;5053261;28;20032;-75
2023/05/11 00:47:49;;;;;;;6.43;2.70;;;11.60;99.90;;;;;;5052859;28;20427;-74
2023/05/11 00:50:15;;;;;;;4.68;2.53;;;11.60;99.90;;;;;;5052743;28;20639;-73
2023/05/11 00:52:41;;;;;;;3.75;2.80;;;11.60;99.90;;;;;;5053149;28;20538;-74
2023/05/11 00:55:07;;;;;;;9.30;3.00;;;11.60;99.90;;;;;;5052605;28;20489;-74
2023/05/11 00:57:35;;;;;;;9.52;2.90;;;11.60;99.90;;;;;;5053014;28;20124;-74
2023/05/11 01:00:05;;;;;;;9.23;3.05;;;11.40;99.90;;;;;;5052551;28;20025;-74
2023/05/11 01:02:32;;;;;;;4.20;2.90;;;11.40;99.90;;;;;;5034844;28;20098;-73
2023/05/11 01:04:58;;;;;;;7.07;3.20;;;11.40;99.90;;;;;;5052500;28;20078;-74
2023/05/11 01:07:44;;;;;;;10.50;3.80;;;11.30;99.90;;;;;;5052817;28;20025;-74
2023/05/11 01:10:32;;;;;;;5.43;2.63;;;11.20;99.90;;;;;;5052332;28;20025;-74
2023/05/11 01:13:03;;;;;;;6.57;2.80;;;11.20;99.90;;;;;;5052321;28;20028;-75
2023/05/11 01:15:51;;;;;;;4.38;2.40;;;11.20;99.90;;;;;;5052689;28;20462;-73
2023/05/11 01:18:28;;;;;;;6.95;2.60;;;11.20;99.90;;;;;;5051429;28;20675;-74
2023/05/11 01:20:59;;;;;;;7.05;2.47;;;11.10;99.90;;;;;;5052572;28;20029;-74
2023/05/11 01:23:47;;;;;;;7.00;2.30;;;11.10;99.90;;;;;;5052369;28;20041;-74
2023/05/11 01:26:49;;;;;;;4.35;2.28;;;11.10;99.90;;;;;;5052248;28;20024;-74
2023/05/11 01:29:51;;;;;;;12.13;3.30;;;11.10;99.90;;;;;;5052278;28;20045;-73
2023/05/11 01:32:24;;;;;;;4.30;1.88;;;11.20;99.90;;;;;;5052016;28;20623;-74
2023/05/11 01:35:07;;;;;;;6.85;2.20;;;11.20;99.90;;;;;;5052594;28;20037;-73
2023/05/11 01:37:35;;;;;;;8.57;2.30;;;11.10;99.90;;;;;;5052388;28;20125;-74
2023/05/11 01:40:10;;;;;;;4.65;1.52;;;11.10;99.90;;;;;;5051459;28;20474;-74
2023/05/11 01:43:00;;;;;;;5.65;2.08;;;11.10;99.90;;;;;;5052238;28;20078;-73
2023/05/11 01:45:28;;;;;;;7.10;2.28;;;11.10;99.90;;;;;;5052039;28;20039;-72
2023/05/11 01:47:54;;;;;;;5.95;2.20;;;11.00;99.90;;;;;;5051750;28;20032;-72
2023/05/11 01:50:23;;;;;;;5.55;2.17;;;10.90;99.90;;;;;;5051697;28;20107;-72
2023/05/11 01:52:50;;;;;;;8.75;2.45;;;10.90;99.90;;;;;;5052563;28;20035;-72
2023/05/11 01:55:20;;;;;;;7.03;2.15;;;10.80;99.90;;;;;;5051959;28;20028;-72
2023/05/11 01:57:48;;;;;;;7.32;2.10;;;10.80;99.90;;;;;;5051988;28;20027;-72
2023/05/11 02:00:16;;;;;;;11.45;2.88;;;10.70;99.90;;;;;;5051675;28;20131;-73
2023/05/11 02:02:46;;;;;;;9.77;2.42;;;10.80;99.90;;;;;;5052262;28;20025;-72
2023/05/11 02:05:22;;;;;;;12.43;2.60;;;10.70;99.90;;;;;;5051697;28;20071;-72
2023/05/11 02:07:50;;;;;;;7.47;2.35;;;10.70;99.90;;;;;;5051786;28;20025;-73
2023/05/11 02:10:17;;;;;;;7.43;2.20;;;10.70;99.90;;;;;;5051777;28;20040;-73
2023/05/11 02:12:45;;;;;;;17.67;2.78;;;10.70;99.90;;;;;;5051885;28;20033;-73
2023/05/11 02:15:13;;;;;;;7.10;2.15;;;10.70;99.90;;;;;;5051442;28;20025;-73
2023/05/11 02:17:40;;;;;;;7.35;2.38;;;10.70;99.90;;;;;;5051896;28;20029;-74
2023/05/11 02:20:07;;;;;;;9.63;2.38;;;10.60;99.90;;;;;;5051313;28;20347;-74
2023/05/11 02:22:35;;;;;;;9.15;2.30;;;10.70;99.90;;;;;;5050905;28;20552;-74
2023/05/11 02:25:00;;;;;;;12.38;2.75;;;10.60;99.90;;;;;;5051263;28;20025;-76
2023/05/11 02:27:26;;;;;;;10.02;2.28;;;10.60;99.90;;;;;;5051441;28;20025;-73
2023/05/11 02:29:52;;;;;;;6.28;1.90;;;10.60;99.90;;;;;;5051140;28;20049;-73
2023/05/11 02:32:21;;;;;;;7.88;2.33;;;10.60;99.90;;;;;;5051057;28;20040;-73
2023/05/11 02:34:57;;;;;;;12.15;2.25;;;10.70;99.90;;;;;;5051648;28;20074;-74
2023/05/11 02:37:24;;;;;;;10.68;2.22;;;10.70;99.90;;;;;;5050991;28;20104;-73
2023/05/11 02:40:08;;;;;;;7.43;2.15;;;10.70;99.90;;;;;;5051360;28;20031;-73
2023/05/11 02:42:38;;;;;;;8.18;2.25;;;10.80;99.90;;;;;;5050999;28;20056;-74
2023/05/11 02:45:07;;;;;;;6.18;2.10;;;10.80;99.90;;;;;;5051338;28;20067;-74
2023/05/11 02:47:41;;;;;;;11.82;2.17;;;10.80;99.90;;;;;;5051822;28;20353;-73
2023/05/11 02:50:08;;;;;;;10.77;1.88;;;10.80;99.90;;;;;;5050890;28;20029;-74
2023/05/11 02:52:37;;;;;;;7.95;2.10;;;10.90;99.90;;;;;;5051333;28;20058;-73
2023/05/11 02:55:04;;;;;;;7.50;2.15;;;10.90;99.90;;;;;;5050587;28;20127;-74
2023/05/11 02:57:30;;;;;;;9.35;2.00;;;11.00;99.90;;;;;;5050841;28;20467;-74
2023/05/11 02:59:56;;;;;;;8.43;2.20;;;10.90;99.90;;;;;;5051182;28;20107;-73
2023/05/11 03:02:22;;;;;;;15.35;2.35;;;10.90;99.90;;;;;;5032721;28;20116;-73
2023/05/11 03:04:48;;;;;;;13.25;2.47;;;11.00;99.90;;;;;;5050807;28;20125;-74
2023/05/11 03:07:14;;;;;;;7.43;2.15;;;11.00;99.90;;;;;;5050426;28;20036;-72
2023/05/11 03:09:40;;;;;;;10.20;1.83;;;11.00;99.90;;;;;;5050732;28;20496;-72
2023/05/11 03:12:07;;;;;;;12.48;3.05;;;11.00;99.90;;;;;;5050471;28;20082;-73
2023/05/11 03:14:33;;;;;;;8.85;2.47;;;11.00;99.90;;;;;;5050947;28;20060;-72
2023/05/11 03:17:00;;;;;;;10.65;2.50;;;11.00;99.90;;;;;;5050747;28;20021;-72
2023/05/11 03:19:28;;;;;;;6.25;2.00;;;11.00;99.90;;;;;;5050372;28;20060;-72
2023/05/11 03:21:56;;;;;;;13.02;2.50;;;11.00;99.90;;;;;;5050386;28;20037;-72
2023/05/11 03:24:23;;;;;;;10.18;2.30;;;11.00;99.90;;;;;;5050001;28;20021;-72
2023/05/11 03:26:50;;;;;;;7.03;2.33;;;11.10;99.90;;;;;;5050426;28;20474;-72
2023/05/11 03:29:17;;;;;;;9.82;2.47;;;11.00;99.90;;;;;;5049950;28;20174;-72
2023/05/11 03:31:43;;;;;;;13.55;2.60;;;11.00;99.90;;;;;;5050716;28;20051;-72
2023/05/11 03:34:09;;;;;;;13.77;2.75;;;11.10;99.90;;;;;;5049923;28;20486;-72
2023/05/11 03:36:35;;;;;;;7.93;1.85;;;11.00;99.90;;;;;;5050522;28;20424;-71
2023/05/11 03:39:02;;;;;;;10.40;2.28;;;11.00;99.90;;;;;;5050248;28;20045;-72
2023/05/11 03:41:31;;;;;;;9.98;2.22;;;10.90;99.90;;;;;;5051491;28;20040;-72
2023/05/11 03:43:59;;;;;;;10.38;2.05;;;11.00;99.90;;;;;;5054503;28;20096;-72
2023/05/11 03:46:27;;;;;;;12.70;2.35;;;10.90;99.90;;;;;;5053971;28;20188;-71
2023/05/11 03:48:53;;;;;;;8.85;2.22;;;10.80;99.90;;;;;;5054500;28;20033;-71
2023/05/11 03:51:19;;;;;;;13.05;2.45;;;10.90;99.90;;;;;;5054037;28;20025;-73
2023/05/11 03:53:46;;;;;;;6.70;2.28;;;10.90;99.90;;;;;;5054560;28;20386;-73
2023/05/11 03:56:11;;;;;;;12.80;2.13;;;10.90;99.90;;;;;;5054004;28;20108;-74
2023/05/11 03:58:39;;;;;;;9.77;2.53;;;10.90;99.90;;;;;;5054205;28;20457;-73
2023/05/11 04:01:08;;;;;;;7.18;2.25;;;11.00;99.90;;;;;;5054459;28;20171;-73
2023/05/11 04:03:50;;;;;;;7.47;2.13;;;11.00;99.90;;;;;;5054484;28;20406;-73
2023/05/11 04:06:17;;;;;;;6.33;2.13;;;11.00;99.90;;;;;;5054119;28;20025;-73
2023/05/11 04:08:43;;;;;;;10.52;2.35;;;11.00;99.90;;;;;;5054338;28;20494;-73
2023/05/11 04:11:09;;;;;;;13.50;2.78;;;11.00;99.90;;;;;;5054308;28;20366;-76
2023/05/11 04:13:35;;;;;;;10.68;2.67;;;10.90;99.90;;;;;;5054355;28;20032;-74
2023/05/11 04:16:01;;;;;;;12.93;2.42;;;10.90;99.90;;;;;;5054327;28;20104;-73
2023/05/11 04:18:28;;;;;;;10.35;2.65;;;11.00;99.90;;;;;;5053364;28;20039;-74
2023/05/11 04:20:54;;;;;;;11.88;2.42;;;11.00;99.90;;;;;;5053961;28;20489;-73
2023/05/11 04:23:19;;;;;;;11.07;2.30;;;11.00;99.90;;;;;;5053600;28;20068;-74
2023/05/11 04:25:45;;;;;;;11.68;2.70;;;10.90;99.90;;;;;;5054093;28;20478;-74
2023/05/11 04:28:11;;;;;;;9.45;2.50;;;11.00;99.90;;;;;;5053631;28;20100;-74
2023/05/11 04:30:37;;;;;;;9.07;2.72;;;11.00;99.90;;;;;;5053858;28;20084;-74
2023/05/11 04:33:02;;;;;;;5.72;2.25;;;11.00;99.90;;;;;;5053969;28;20037;-74
2023/05/11 04:35:28;;;;;;;10.57;2.17;;;11.10;99.90;;;;;;5053815;28;20595;-73
2023/05/11 04:37:54;;;;;;;10.20;2.53;;;11.10;99.90;;;;;;5053818;28;20033;-73
2023/05/11 04:40:20;;;;;;;14.32;2.45;;;11.10;99.90;;;;;;5053177;28;20021;-75
2023/05/11 04:42:45;;;;;;;11.73;2.50;;;11.10;99.90;;;;;;5035623;28;20106;-74
2023/05/11 04:45:11;;;;;;;10.13;2.10;;;11.00;99.90;;;;;;5053396;28;20032;-74
2023/05/11 04:47:37;;;;;;;11.63;2.30;;;11.00;99.90;;;;;;5053504;28;20431;-74
2023/05/11 04:50:03;;;;;;;6.75;2.70;;;11.00;99.90;;;;;;5052976;28;20207;-74
2023/05/11 04:52:29;;;;;;;11.38;2.30;;;11.00;99.90;;;;;;5051836;28;20264;-73
2023/05/11 04:54:55;;;;;;;15.98;2.80;;;11.00;99.90;;;;;;5053076;28;20080;-74
2023/05/11 04:57:20;;;;;;;10.35;2.63;;;11.00;99.90;;;;;;5052669;28;20024;-73
2023/05/11 04:59:46;;;;;;;15.77;2.90;;;11.00;99.90;;;;;;5053215;28;20021;-73
2023/05/11 05:02:12;;;;;;;9.93;2.25;;;11.00;99.90;;;;;;5034865;28;20102;-76
2023/05/11 05:04:37;;;;;;;6.38;2.35;;;11.00;99.90;;;;;;5053149;28;20017;-73
2023/05/11 05:07:03;;;;;;;11.77;2.58;;;11.10;99.90;;;;;;5034830;28;20128;-73
2023/05/11 05:09:29;;;;;;;16.50;2.88;;;11.00;99.90;;;;;;5052558;28;20063;-74
2023/05/11 05:11:55;;;;;;;12.93;2.85;;;11.10;99.90;;;;;;5052689;28;20029;-73
2023/05/11 05:14:20;;;;;;;16.10;3.15;;;11.10;99.90;;;;;;5052326;28;20071;-74
2023/05/11 05:16:46;;;;;;;8.55;2.97;;;11.10;99.90;;;;;;5052664;28;20049;-73
2023/05/11 05:19:12;;;;;;;20.33;3.67;;;11.10;99.90;;;;;;5052138;28;20029;-76
2023/05/11 05:21:39;;;;;;;14.48;3.13;;;11.10;99.90;;;;;;5052405;28;20048;-74
2023/05/11 05:24:05;;;;;;;10.00;2.55;;;11.10;99.90;;;;;;5052361;28;20025;-73
2023/05/11 05:26:31;;;;;;;14.18;3.75;;;11.10;99.90;;;;;;5052167;28;20049;-73
2023/05/11 05:28:57;;;;;;;14.75;3.67;;;11.20;99.90;;;;;;5052383;28;20056;-73
2023/05/11 05:31:23;;;;;;;9.40;2.78;;;11.20;99.90;;;;;;5051472;28;20045;-74
2023/05/11 05:33:49;;;;;;;8.10;3.22;;;11.20;99.90;;;;;;5034333;28;20458;-73
2023/05/11 05:36:15;;;;;;;12.50;3.33;;;11.20;99.90;;;;;;5051955;28;20021;-74
2023/05/11 05:38:40;;;;;;;12.45;3.25;;;11.20;99.90;;;;;;5052376;28;20032;-73
2023/05/11 05:41:06;;;;;;;12.43;3.10;;;11.10;99.90;;;;;;5052094;28;20025;-73
2023/05/11 05:43:32;;;;;;;16.10;3.13;;;11.20;99.90;;;;;;5051682;28;20037;-73
2023/05/11 05:45:58;;;;;;;9.05;2.65;;;11.20;99.90;;;;;;5052096;28;20604;-73
2023/05/11 05:48:23;;;;;;;16.17;3.28;;;11.20;99.90;;;;;;5051422;28;20040;-74
2023/05/11 05:50:49;;;;;;;13.38;3.47;;;11.30;99.90;;;;;;5052653;28;20021;-74
2023/05/11 05:53:15;;;;;;;9.43;2.63;;;11.30;99.90;;;;;;5034102;28;20029;-75
2023/05/11 05:55:41;;;;;;;13.27;3.05;;;11.30;99.90;;;;;;5051409;28;20040;-72
2023/05/11 05:58:06;;;;;;;17.27;3.33;;;11.30;99.90;;;;;;5051982;28;20385;-72
2023/05/11 06:00:34;;;;;;;9.68;2.90;;;11.30;99.90;;;;;;5033574;28;20063;-72
2023/05/11 06:03:00;;;;;;;14.13;3.13;;;11.40;99.90;;;;;;5033856;28;20037;-72
2023/05/11 06:05:26;;;;;;;12.23;3.20;;;11.40;99.90;;;;;;5050392;28;20444;-72
2023/05/11 06:07:51;;;;;;;14.35;3.22;;;11.40;99.90;;;;;;5051651;28;20029;-72
2023/05/11 06:10:17;;;;;;;9.88;2.83;;;11.40;99.90;;;;;;5050936;28;20047;-73
2023/05/11 06:12:43;;;;;;;13.35;2.85;;;11.40;99.90;;;;;;5051479;28;20431;-71
2023/05/11 06:15:09;;;;;;;14.10;3.15;;;11.50;99.90;;;;;;5051483;28;20439;-72
2023/05/11 06:17:35;;;;;;;14.77;3.05;;;11.50;99.90;;;;;;5050857;28;20035;-72
2023/05/11 06:20:00;;;;;;;11.75;3.33;;;11.60;99.90;;;;;;5051208;28;20029;-72
2023/05/11 06:22:26;;;;;;;15.73;3.10;;;11.60;99.90;;;;;;5050671;28;20036;-73
2023/05/11 06:24:52;;;;;;;14.15;2.88;;;11.70;99.90;;;;;;5050785;28;20081;-72
2023/05/11 06:27:17;;;;;;;12.77;3.30;;;11.80;99.90;;;;;;5050846;28;20339;-74
2023/05/11 06:29:43;;;;;;;14.75;3.17;;;11.80;99.90;;;;;;5050918;28;20374;-72
2023/05/11 06:32:09;;;;;;;13.30;3.28;;;11.90;99.90;;;;;;5033112;28;20036;-72
2023/05/11 06:34:35;;;;;;;13.25;3.25;;;12.00;99.90;;;;;;5050687;28;20081;-73
2023/05/11 06:37:01;;;;;;;16.55;3.33;;;12.10;99.90;;;;;;5051234;28;20477;-72
2023/05/11 06:39:27;;;;;;;11.57;3.22;;;12.10;99.90;;;;;;5050716;28;20170;-73
2023/05/11 06:41:52;;;;;;;14.95;3.50;;;12.10;99.90;;;;;;5051372;28;20036;-73
2023/05/11 06:44:18;;;;;;;11.57;3.80;;;12.10;99.90;;;;;;5050223;28;20459;-75
2023/05/11 06:46:44;;;;;;;10.10;2.97;;;12.00;99.90;;;;;;5051318;28;20063;-72
2023/05/11 06:49:10;;;;;;;12.18;3.28;;;12.10;99.90;;;;;;5033307;28;20021;-72
2023/05/11 06:51:35;;;;;;;12.75;3.28;;;12.10;99.90;;;;;;5050310;28;20109;-72
2023/05/11 06:54:01;;;;;;;12.52;3.67;;;12.10;99.90;;;;;;5050672;28;20021;-72
2023/05/11 06:56:28;;;;;;;11.57;3.20;;;12.10;99.90;;;;;;5050250;28;20430;-72
2023/05/11 06:58:53;;;;;;;9.57;3.03;;;12.10;99.90;;;;;;5050466;28;20116;-72
2023/05/11 07:01:19;;;;;;;7.47;2.63;;;12.10;99.90;;;;;;5049761;28;20061;-75
2023/05/11 07:03:47;;;;;;;9.50;3.25;;;12.10;99.90;;;;;;5050616;28;20494;-72
2023/05/11 07:06:13;;;;;;;16.77;4.25;;;12.10;99.90;;;;;;5032866;28;20108;-72
2023/05/11 07:08:39;;;;;;;8.40;2.58;;;12.00;99.90;;;;;;5050608;28;20245;-72
2023/05/11 07:11:06;;;;;;;9.18;2.97;;;12.00;99.90;;;;;;5051024;28;20049;-72
2023/05/11 07:13:32;;;;;;;9.63;3.53;;;12.00;99.90;;;;;;5049782;28;20029;-72
2023/05/11 07:15:58;;;;;;;11.05;2.70;;;12.10;99.90;;;;;;5050982;28;20467;-72
2023/05/11 07:18:24;;;;;;;14.60;3.40;;;12.10;99.90;;;;;;5054078;28;20044;-73
2023/05/11 07:20:49;;;;;;;10.27;2.70;;;12.20;99.90;;;;;;5054545;28;20374;-72
2023/05/11 07:23:18;;;;;;;12.48;2.85;;;12.10;99.90;;;;;;5054275;28;20040;-72
2023/05/11 07:25:44;;;;;;;8.50;2.75;;;12.10;99.90;;;;;;5053974;28;20029;-73
2023/05/11 07:28:10;;;;;;;10.23;3.58;;;12.10;99.90;;;;;;5036359;28;20418;-72
2023/05/11 07:30:36;;;;;;;9.48;2.85;;;12.20;99.90;;;;;;5035638;28;20398;-72
2023/05/11 07:33:02;;;;;;;9.52;3.42;;;12.20;99.90;;;;;;5054378;28;20029;-72
2023/05/11 07:35:28;;;;;;;13.20;3.30;;;12.20;99.90;;;;;;5053848;28;20082;-72
2023/05/11 07:37:53;;;;;;;10.68;3.25;;;12.30;99.90;;;;;;5054271;28;20028;-72
2023/05/11 07:40:19;;;;;;;6.82;2.72;;;12.30;99.90;;;;;;5053894;28;20025;-72
2023/05/11 07:42:45;;;;;;;10.65;3.38;;;12.30;99.90;;;;;;5054029;28;20044;-71
2023/05/11 07:45:11;;;;;;;8.75;2.88;;;12.40;99.90;;;;;;5054184;28;20416;-72
2023/05/11 07:47:36;;;;;;;9.68;3.33;;;12.40;99.90;;;;;;5053305;28;20048;-72
2023/05/11 07:50:02;;;;;;;10.88;2.78;;;12.50;99.90;;;;;;5053952;28;20032;-72
2023/05/11 07:52:28;;;;;;;11.57;3.00;;;12.50;99.90;;;;;;5053962;28;20033;-72
2023/05/11 07:54:54;;;;;;;9.68;3.67;;;12.50;99.90;;;;;;5035947;28;20024;-72
2023/05/11 07:57:20;;;;;;;12.18;2.78;;;12.50;99.90;;;;;;5053774;28;20040;-72
2023/05/11 07:59:45;;;;;;;10.73;2.50;;;12.70;99.90;;;;;;5053084;28;20029;-72
2023/05/11 08:02:11;;;;;;;10.00;2.63;;;12.80;99.90;;;;;;5053776;28;20033;-71
2023/05/11 08:04:37;;;;;;;12.75;2.40;;;12.90;99.90;;;;;;5053134;28;20060;-72
2023/05/11 08:07:03;;;;;;;10.38;2.65;;;12.90;99.90;;;;;;5053751;28;20025;-72
2023/05/11 08:09:29;;;;;;;6.53;2.60;;;13.00;99.90;;;;;;5053424;28;20100;-72
2023/05/11 08:12:00;;;;;;;9.38;2.40;;;13.10;99.90;;;;;;5053808;28;20112;-72
2023/05/11 08:14:26;;;;;;;5.82;2.25;;;13.30;99.90;;;;;;5053132;28;20021;-74
2023/05/11 08:16:51;;;;;;;9.82;2.40;;;13.50;99.90;;;;;;5053585;28;20032;-73
2023/05/11 08:19:17;;;;;;;9.13;2.25;;;13.50;99.90;;;;;;5053316;28;20458;-71
2023/05/11 08:21:45;;;;;;;6.30;1.83;;;13.60;99.90;;;;;;5053335;28;20037;-72
2023/05/11 08:24:11;;;;;;;11.50;2.00;;;13.80;99.90;;;;;;5053449;28;20037;-74
2023/05/11 08:26:37;;;;;;;8.82;2.65;;;13.90;99.90;;;;;;5052836;28;20041;-72
2023/05/11 08:29:03;;;;;;;6.95;2.08;;;14.00;99.90;;;;;;5053243;28;20058;-72
2023/05/11 08:31:29;;;;;;;5.82;1.60;;;14.10;99.90;;;;;;5052991;28;20036;-72
2023/05/11 08:33:56;;;;;;;6.07;1.90;;;14.10;99.90;;;;;;5053394;28;20043;-72
2023/05/11 08:36:22;;;;;;;7.22;2.30;;;14.10;99.90;;;;;;5035285;28;20029;-72
2023/05/11 08:38:47;;;;;;;4.60;2.10;;;14.10;99.90;;;;;;5052690;28;20029;-72
2023/05/11 08:41:13;;;;;;;8.88;1.75;;;14.30;99.90;;;;;;5053437;28;20082;-72
2023/05/11 08:43:39;;;;;;;8.70;1.95;;;14.40;99.90;;;;;;5052794;28;20067;-73
2023/05/11 08:46:07;;;;;;;3.53;1.50;;;14.40;99.90;;;;;;5052991;28;20071;-72
2023/05/11 08:48:33;;;;;;;3.10;1.38;;;14.30;99.90;;;;;;5052251;28;20032;-73
2023/05/11 08:51:00;;;;;;;7.88;1.67;;;14.10;99.90;;;;;;5052738;28;20040;-72
2023/05/11 08:53:25;;;;;;;5.25;1.50;;;14.00;99.90;;;;;;5052182;28;20478;-74
2023/05/11 08:55:56;;;;;;;4.13;1.80;;;13.90;99.90;;;;;;5052360;28;20079;-72
2023/05/11 08:58:22;;;;;;;6.45;1.90;;;13.80;99.90;;;;;;5053162;28;20025;-72
2023/05/11 09:00:49;;;;;;;5.97;1.83;;;13.90;99.90;;;;;;5053574;28;20025;-73
2023/05/11 09:03:18;;;;;;;4.70;2.03;;;14.30;99.90;;;;;;5053490;28;20370;-73
2023/05/11 09:05:47;;;;;;;8.85;1.98;;;14.60;99.90;;;;;;5052905;28;20124;-73
2023/05/11 09:08:16;;;;;;;5.70;1.75;;;14.60;99.90;;;;;;5053539;28;20057;-73
2023/05/11 09:10:43;;;;;;;7.03;1.77;;;14.60;99.90;;;;;;5052679;28;20031;-73
2023/05/11 09:13:09;;;;;;;7.10;2.10;;;14.60;99.90;;;;;;5053060;28;20335;-73
2023/05/11 09:15:35;;;;;;;3.83;1.45;;;14.50;99.90;;;;;;5052085;28;20040;-73
2023/05/11 09:18:02;;;;;;;5.32;1.52;;;14.40;99.90;;;;;;5034148;28;20124;-72
2023/05/11 09:20:30;;;;;;;5.07;1.92;;;14.30;99.90;;;;;;5034146;28;20158;-76
2023/05/11 09:22:57;;;;;;;5.57;1.88;;;14.50;99.90;;;;;;5051798;28;20032;-73
2023/05/11 09:25:24;;;;;;;4.80;1.58;;;14.70;99.90;;;;;;5052162;28;20459;-72
2023/05/11 09:27:51;;;;;;;5.07;2.05;;;14.90;99.90;;;;;;5051749;28;20029;-73
2023/05/11 09:30:21;;;;;;;4.85;1.23;;;14.80;99.90;;;;;;5051646;28;20049;-73
2023/05/11 09:32:58;;;;;;;5.70;1.40;;;14.60;99.90;;;;;;5052039;28;20624;-73
2023/05/11 09:35:30;;;;;;;6.85;1.23;;;14.50;99.90;;;;;;5052163;28;20374;-73
2023/05/11 09:38:08;;;;;;;5.38;1.80;;;14.20;99.90;;;;;;5052386;28;20089;-74
2023/05/11 09:41:02;;;;;;;4.78;1.63;;;14.10;99.90;;;;;;5050684;28;20047;-75
2023/05/11 09:43:29;;;;;;;5.78;1.80;;;14.30;99.90;;;;;;5048583;28;20041;-73
2023/05/11 09:45:57;;;;;;;2.88;1.50;;;14.40;99.90;;;;;;5052165;28;20025;-74
2023/05/11 09:48:25;;;;;;;3.85;1.30;;;14.70;99.90;;;;;;5051972;28;20028;-73
2023/05/11 09:51:02;;;;;;;2.90;1.38;;;15.00;99.90;;;;;;5051431;28;20024;-73
2023/05/11 09:53:35;;;;;;;3.90;1.30;;;15.30;99.90;;;;;;5051924;28;20028;-73
2023/05/11 09:56:00;;;;;;;7.72;1.48;;;15.40;99.90;;;;;;5051962;28;20105;-73
2023/05/11 09:58:34;;;;;;;3.00;1.13;;;15.30;99.90;;;;;;5052161;28;20029;-73
2023/05/11 10:01:00;;;;;;;4.43;1.15;;;15.10;99.90;;;;;;5052721;28;20108;-73
2023/05/11 10:03:26;;;;;;;4.13;1.48;;;15.00;99.90;;;;;;5052463;28;20113;-73
2023/05/11 10:05:57;;;;;;;5.10;1.10;;;14.80;99.90;;;;;;5052156;28;20023;-73
2023/05/11 10:08:33;;;;;;;3.40;1.13;;;14.60;99.90;;;;;;5052797;28;20047;-73
2023/05/11 10:11:01;;;;;;;5.10;1.30;;;14.60;99.90;;;;;;5052560;28;20111;-72
2023/05/11 10:13:27;;;;;;;3.22;1.10;;;14.50;99.90;;;;;;5052910;28;20155;-73
2023/05/11 10:15:54;;;;;;;2.80;1.40;;;14.50;99.90;;;;;;5052314;28;20029;-74
2023/05/11 10:18:20;;;;;;;3.17;1.30;;;14.50;99.90;;;;;;5053347;28;20366;-73
2023/05/11 10:20:46;;;;;;;3.80;1.55;;;14.50;99.90;;;;;;5052328;28;20116;-76
2023/05/11 10:23:13;;;;;;;5.25;1.17;;;14.40;99.90;;;;;;5052364;28;20037;-74
2023/05/11 10:25:40;;;;;;;5.32;1.73;;;14.30;99.90;;;;;;5051834;28;20534;-72
2023/05/11 10:28:05;;;;;;;4.85;1.40;;;14.20;99.90;;;;;;5051942;28;20079;-73
2023/05/11 10:30:33;;;;;;;5.53;1.17;;;14.30;99.90;;;;;;5051410;28;20441;-77
2023/05/11 10:33:00;;;;;;;4.20;1.60;;;14.30;99.90;;;;;;5051910;28;20506;-72
2023/05/11 10:35:26;;;;;;;3.75;1.35;;;14.40;99.90;;;;;;5052050;28;20036;-74
2023/05/11 10:37:52;;;;;;;4.60;1.75;;;14.80;99.90;;;;;;5051975;28;20092;-73
2023/05/11 10:40:19;;;;;;;3.95;1.10;;;15.10;99.90;;;;;;5052007;28;20025;-73
2023/05/11 10:43:12;;;;;;;3.88;1.40;;;15.40;99.90;;;;;;5051351;28;20454;-73
2023/05/11 10:45:47;;;;;;;5.57;1.17;;;15.80;99.90;;;;;;5051574;28;20021;-74
2023/05/11 10:48:35;;;;;;;3.38;1.30;;;16.20;99.90;;;;;;5050865;28;20029;-73
2023/05/11 10:51:39;;;;;;;3.40;1.15;;;16.60;99.90;;;;;;5050834;28;20067;-73
2023/05/11 10:54:31;;;;;;;5.82;1.40;;;16.70;99.90;;;;;;5033086;28;20466;-73
2023/05/11 10:57:25;;;;;;;4.10;1.27;;;16.50;99.90;;;;;;5050914;28;20458;-73
2023/05/11 11:00:30;;;;;;;2.63;0.80;;;16.30;99.90;;;;;;5050311;28;20033;-73
2023/05/11 11:03:09;;;;;;;2.55;1.38;;;15.60;99.90;;;;;;5049977;28;20222;-74
2023/05/11 11:05:37;;;;;;;3.30;0.95;;;15.10;99.90;;;;;;5050874;28;20048;-83
2023/05/11 11:08:04;;;;;;;4.03;1.10;;;14.60;99.90;;;;;;5032838;28;20028;-79
2023/05/11 11:10:45;;;;;;;4.13;1.10;;;14.20;99.90;;;;;;5051038;28;20393;-79
2023/05/11 11:13:12;;;;;;;4.65;1.20;;;13.90;99.90;;;;;;5051408;28;20029;-80
2023/05/11 11:15:53;;;;;;;5.57;1.30;;;13.70;99.90;;;;;;5050954;28;20021;-82
2023/05/11 11:18:22;;;;;;;4.40;1.17;;;13.50;99.90;;;;;;5051502;28;20086;-78
2023/05/11 11:20:52;;;;;;;5.57;1.52;;;13.30;99.90;;;;;;5050875;28;20065;-76
2023/05/11 11:23:43;;;;;;;4.93;1.67;;;13.40;99.90;;;;;;5050645;28;20033;-76
2023/05/11 11:26:17;;;;;;;5.80;1.70;;;13.30;99.90;;;;;;5050618;28;20189;-74
2023/05/11 11:29:01;;;;;;;6.18;1.90;;;13.30;99.90;;;;;;5049943;28;20036;-74
2023/05/11 11:31:29;;;;;;;3.80;1.20;;;13.50;99.90;;;;;;5050310;28;20053;-73
2023/05/11 11:33:57;;;;;;;6.60;1.60;;;13.40;99.90;;;;;;5049863;28;20036;-74
2023/05/11 11:36:54;;;;;;;5.05;1.80;;;13.40;99.90;;;;;;5050416;28;20021;-74
2023/05/11 11:39:21;;;;;;;3.70;1.10;;;13.50;99.90;;;;;;5050524;28;20378;-74
2023/05/11 11:42:03;;;;;;;2.97;1.05;;;13.50;99.90;;;;;;5049801;28;20098;-74
2023/05/11 11:44:29;;;;;;;5.40;1.48;;;13.50;99.90;;;;;;5049942;28;20021;-74
2023/05/11 11:47:10;;;;;;;2.58;1.30;;;13.70;99.90;;;;;;5049742;28;20040;-75
2023/05/11 11:49:37;;;;;;;3.80;1.50;;;13.80;99.90;;;;;;5050132;28;20457;-76
2023/05/11 11:52:05;;;;;;;4.93;1.48;;;13.90;99.90;;;;;;5049951;28;20098;-74
2023/05/11 11:54:42;;;;;;;5.63;1.45;;;14.10;99.90;;;;;;5049947;28;20052;-73
2023/05/11 11:57:33;;;;;;;4.53;1.10;;;14.20;99.90;;;;;;5050145;28;20052;-74
2023/05/11 12:00:00;;;;;;;6.35;1.52;;;14.10;99.90;;;;;;5049520;28;20613;-73
2023/05/11 12:02:27;;;;;;;5.55;1.27;;;14.10;99.90;;;;;;5051196;28;20040;-81
2023/05/11 12:05:25;;;;;;;4.00;1.17;;;14.10;99.90;;;;;;5055046;28;20033;-78
2023/05/11 12:07:52;;;;;;;2.30;1.10;;;13.90;99.90;;;;;;4999020;28;20041;-78
2023/05/11 12:10:19;;;;;;;3.40;0.93;;;13.90;99.90;;;;;;5054286;28;20036;-76
2023/05/11 12:12:47;;;;;;;3.58;1.20;;;14.00;99.90;;;;;;5053596;28;20420;-74
2023/05/11 12:15:31;;;;;;;3.15;1.20;;;14.10;99.90;;;;;;5053552;28;20040;-75
2023/05/11 12:17:57;;;;;;;4.35;1.38;;;14.00;99.90;;;;;;5052972;28;20094;-75
2023/05/11 12:20:23;;;;;;;2.58;0.80;;;14.00;99.90;;;;;;5035408;28;20028;-75
2023/05/11 12:22:49;;;;;;;4.20;1.55;;;14.10;99.90;;;;;;5052933;28;20045;-75
2023/05/11 12:25:16;;;;;;;2.78;1.20;;;14.20;99.90;;;;;;5053404;28;20041;-74
2023/05/11 12:27:57;;;;;;;2.95;0.93;;;14.40;99.90;;;;;;5052704;28;20346;-75
2023/05/11 12:30:28;;;;;;;2.92;1.10;;;14.60;99.90;;;;;;5052911;28;20212;-73
2023/05/11 12:32:53;;;;;;;3.15;1.25;;;14.70;99.90;;;;;;5053037;28;20033;-73
2023/05/11 12:35:33;;;;;;;2.03;0.80;;;14.80;99.90;;;;;;5035023;28;20116;-73
2023/05/11 12:38:01;;;;;;;5.40;1.85;;;14.70;99.90;;;;;;5052889;28;20029;-73
2023/05/11 12:40:27;;;;;;;3.85;1.20;;;14.70;99.90;;;;;;5034884;28;20078;-73
2023/05/11 12:42:57;;;;;;;4.15;1.23;;;14.60;99.90;;;;;;5052184;28;20033;-73
2023/05/11 12:45:25;;;;;;;3.55;1.33;;;14.50;99.90;;;;;;5053162;28;20048;-74
2023/05/11 12:47:53;;;;;;;5.05;1.20;;;14.50;99.90;;;;;;5053221;28;20075;-84
2023/05/11 12:50:38;;;;;;;;;;;;;;;;;;;;;
2023/05/11 12:53:15;;;;;;;3.60;1.48;;;13.90;99.90;;;;;;5054140;28;20051;-82
2023/05/11 12:55:41;;;;;;;3.92;1.38;;;13.40;99.90;;;;;;5053295;28;20051;-83